Latest Weather Observations for Territory Grape Farm

IDD60801

Issued at 1:01 pm CST Friday 17 September 2021 (issued every 10 minutes, with the page automatically refreshed every 10 minutes)

About weather observations | Map of weather stations | Latest weather observations for NT | Other Formats
Station Details ID: 015643 Name: TERRITORY GRAPE FARM Lat: -22.45 Lon: 133.64 Height: 565.6 m
Data from the previous 72 hours. | See also: Recent months at Territory Grape Farm
Date/Time
CST
Temp
°C
App
Temp
°C
Dew
Point
°C
Rel
Hum
%
Delta-T
°C
Wind Press
QNH
hPa
Press
MSL
hPa
Rain since
9am
mm
Dir  Spd
km/h
Gust
km/h
Spd
kts
Gust
kts
17/01:00pm 32.8 26.1 5.4 18 14.9 NW 30 43 16 23 1015.2 1012.7 0.0
17/12:30pm 32.3 25.8 6.5 20 14.3 NW 30 44 16 24 1015.8 1013.4 0.0
17/12:00pm 31.6 25.0 5.9 20 14.0 NNW 30 41 16 22 1016.3 1013.8 0.0
17/11:30am 31.4 24.7 5.8 20 13.9 NNW 30 43 16 23 1016.4 1013.9 0.0
17/11:00am 30.7 23.7 5.9 21 13.5 NNW 32 43 17 23 1016.6 1014.1 0.0
17/10:30am 30.4 23.6 7.0 23 12.9 NNW 32 46 17 25 1017.0 1014.5 0.0
17/10:00am 28.2 20.3 6.3 25 11.8 NNW 37 52 20 28 1017.1 1014.6 0.0
17/09:30am 28.9 21.5 6.9 25 12.0 NNW 35 48 19 26 1016.8 1014.3 0.0
17/09:19am 28.3 21.3 7.0 26 11.7 NNW 33 54 18 29 1016.7 1014.2 0.0
17/09:00am 27.7 22.6 7.5 28 11.1 N 24 35 13 19 1016.8 1014.3 0.0
17/08:30am 25.4 19.7 6.6 30 10.0 N 26 35 14 19 1016.6 1014.1 0.0
17/08:00am 25.4 18.9 6.6 30 10.1 N 30 43 16 23 1016.3 1013.8 0.0
17/07:30am 24.0 17.5 6.3 32 9.3 N 30 41 16 22 1015.7 1013.2 0.0
17/07:24am 24.0 17.8 6.3 32 9.3 N 28 39 15 21 1015.6 1013.1 0.0
17/07:00am 19.0 15.9 5.5 41 6.8 N 11 13 6 7 1015.4 1012.9 0.0
17/06:30am 16.6 15.1 7.0 53 4.9 NNW 4 4 2 2 1014.8 1012.3 0.0
17/06:00am 16.7 14.9 7.1 53 4.9 NNW 6 6 3 3 1014.1 1011.6 0.0
17/05:30am 16.5 14.6 7.7 56 4.6 N 7 7 4 4 1013.7 1011.2 0.0
17/05:00am 16.1 14.8 7.6 57 4.4 N 4 4 2 2 1013.4 1010.9 0.0
17/04:30am 15.6 14.9 8.6 63 3.7 N 2 4 1 2 1013.3 1010.8 0.0
17/04:00am 16.4 16.4 9.8 65 3.6 CALM 0 0 0 0 1013.3 1010.8 0.0
17/03:30am 16.2 15.8 8.4 60 4.1 CALM 0 0 0 0 1013.5 1011.0 0.0
17/03:00am 17.1 16.9 9.0 59 4.3 CALM 0 0 0 0 1013.5 1011.0 0.0
17/02:30am 18.0 17.8 9.1 56 4.8 CALM 0 0 0 0 1013.8 1011.3 0.0
17/02:00am 18.0 17.5 7.7 51 5.4 CALM 0 0 0 0 1013.9 1011.4 0.0
17/01:30am 17.3 16.3 7.4 52 5.1 NNE 2 4 1 2 1014.2 1011.7 0.0
17/01:00am 18.8 18.2 7.3 47 6.0 CALM 0 4 0 2 1014.4 1011.9 0.0
17/12:30am 19.7 18.5 8.1 47 6.2 N 4 4 2 2 1014.5 1012.0 0.0
17/12:00am 20.9 18.8 5.7 37 7.8 N 6 6 3 3 1014.7 1012.2 0.0
 
Date/Time
CST
Temp
°C
App
Temp
°C
Dew
Point
°C
Rel
Hum
%
Delta-T
°C
Wind Press
QNH
hPa
Press
MSL
hPa
Rain since
9am
mm
Dir  Spd
km/h
Gust
km/h
Spd
kts
Gust
kts
16/11:30pm 22.2 20.0 5.2 33 8.7 N 6 6 3 3 1014.9 1012.4 0.0
16/11:00pm 22.3 19.5 5.3 33 8.7 N 9 9 5 5 1015.0 1012.5 0.0
16/10:30pm 22.8 20.4 5.3 32 9.0 N 7 7 4 4 1015.1 1012.6 0.0
16/10:00pm 22.6 19.8 5.1 32 9.0 NNE 9 11 5 6 1015.2 1012.7 0.0
16/09:30pm 24.1 20.9 5.0 29 9.8 NNE 11 13 6 7 1015.0 1012.5 0.0
16/09:00pm 24.5 21.3 5.3 29 10.0 N 11 11 6 6 1014.8 1012.3 0.0
16/08:30pm 24.9 22.0 4.6 27 10.4 N 9 11 5 6 1014.5 1012.0 0.0
16/08:00pm 25.7 22.7 4.2 25 11.0 NNE 9 13 5 7 1014.0 1011.5 0.0
16/07:30pm 27.0 23.6 4.1 23 11.8 N 11 13 6 7 1013.6 1011.1 0.0
16/07:00pm 27.7 24.7 4.1 22 12.2 N 9 11 5 6 1013.2 1010.7 0.0
16/06:30pm 30.2 26.3 3.3 18 14.0 NNE 13 17 7 9 1013.0 1010.5 0.0
16/06:00pm 32.6 28.9 2.6 15 15.6 N 11 17 6 9 1012.7 1010.1 0.0
16/05:30pm 33.9 30.5 1.6 13 16.7 N 9 17 5 9 1012.4 1009.9 0.0
16/05:00pm 34.8 31.3 1.2 12 17.3 N 9 19 5 10 1012.2 1009.7 0.0
16/04:30pm 34.8 31.3 1.2 12 17.3 NNW 9 20 5 11 1012.1 1009.6 0.0
16/04:00pm 34.9 29.7 0.1 11 17.6 NNW 17 26 9 14 1012.3 1009.8 0.0
16/03:30pm 35.5 32.1 1.8 12 17.6 WNW 9 20 5 11 1012.4 1009.9 0.0
16/03:00pm 35.3 32.0 0.4 11 17.8 NNW 7 17 4 9 1012.8 1010.3 0.0
16/02:30pm 35.1 31.1 0.2 11 17.8 WNW 11 24 6 13 1013.2 1010.7 0.0
16/02:00pm 35.2 30.6 1.5 12 17.5 NNE 15 24 8 13 1013.7 1011.2 0.0
16/01:30pm 34.9 30.6 1.3 12 17.4 NNE 13 22 7 12 1014.2 1011.7 0.0
16/01:00pm 35.1 29.7 1.5 12 17.4 N 19 30 10 16 1014.7 1012.2 0.0
16/12:30pm 34.6 29.7 2.2 13 17.0 NNW 17 28 9 15 1015.4 1012.9 0.0
16/12:00pm 34.0 29.1 1.7 13 16.7 N 17 26 9 14 1016.0 1013.6 0.0
16/11:30am 34.0 29.1 1.7 13 16.7 N 17 24 9 13 1016.8 1014.3 0.0
16/11:00am 32.8 28.0 2.8 15 15.7 NNW 17 24 9 13 1017.2 1014.7 0.0
16/10:30am 31.1 26.6 2.3 16 14.8 N 15 26 8 14 1017.5 1015.1 0.0
16/10:00am 29.9 25.4 2.2 17 14.1 N 15 24 8 13 1017.7 1015.3 0.0
16/09:30am 28.8 25.3 3.6 20 13.0 NE 11 17 6 9 1017.7 1015.3 0.0
16/09:00am 27.5 24.1 3.9 22 12.2 ENE 11 15 6 8 1017.6 1015.2 0.0
16/08:30am 25.4 22.3 5.6 28 10.4 ENE 11 17 6 9 1017.5 1015.1 0.0
16/08:00am 23.0 19.7 6.3 34 8.8 ENE 13 17 7 9 1017.5 1015.1 0.0
16/07:30am 18.4 16.9 6.9 47 5.9 SSE 4 6 2 3 1017.3 1014.8 0.0
16/07:00am 16.9 15.0 6.7 51 5.2 SE 6 7 3 4 1016.9 1014.4 0.0
16/06:30am 15.5 13.7 7.0 57 4.3 ESE 6 9 3 5 1016.6 1014.1 0.0
16/06:00am 14.6 12.3 7.4 62 3.7 ESE 9 15 5 8 1016.3 1013.8 0.0
16/05:30am 16.2 14.4 7.2 55 4.6 SE 6 7 3 4 1015.8 1013.4 0.0
16/05:00am 16.1 14.9 8.1 59 4.2 S 4 13 2 7 1015.4 1012.9 0.0
16/04:30am 16.2 15.8 8.2 59 4.2 CALM 0 0 0 0 1015.0 1012.5 0.0
16/04:00am 16.4 16.0 8.4 59 4.2 CALM 0 0 0 0 1015.0 1012.5 0.0
16/03:30am 17.1 16.3 8.3 56 4.6 E 2 6 1 3 1015.1 1012.6 0.0
16/03:00am 16.9 14.1 8.6 58 4.4 ESE 13 15 7 8 1015.3 1012.8 0.0
16/02:30am 16.7 15.1 8.7 59 4.2 SE 7 9 4 5 1015.6 1013.1 0.0
16/02:00am 18.2 17.2 9.0 55 4.9 SSE 4 6 2 3 1015.8 1013.4 0.0
16/01:30am 18.0 16.5 9.1 56 4.8 SE 7 9 4 5 1016.0 1013.6 0.0
16/01:00am 19.5 18.1 9.4 52 5.5 S 7 11 4 6 1016.3 1013.8 0.0
16/12:30am 19.8 18.5 9.1 50 5.8 SSW 6 9 3 5 1016.6 1014.1 0.0
16/12:00am 19.5 18.2 9.1 51 5.6 SSW 6 9 3 5 1016.9 1014.4 0.0
 
Date/Time
CST
Temp
°C
App
Temp
°C
Dew
Point
°C
Rel
Hum
%
Delta-T
°C
Wind Press
QNH
hPa
Press
MSL
hPa
Rain since
9am
mm
Dir  Spd
km/h
Gust
km/h
Spd
kts
Gust
kts
15/11:30pm 20.7 20.0 8.7 46 6.5 SSW 2 4 1 2 1017.0 1014.5 0.0
15/11:00pm 22.0 21.5 7.8 40 7.6 CALM 0 0 0 0 1017.1 1014.6 0.0
15/10:30pm 23.1 21.4 7.6 37 8.3 NNE 6 6 3 3 1017.2 1014.7 0.0
15/10:00pm 23.7 21.0 7.3 35 8.8 NNE 11 13 6 7 1017.3 1014.8 0.0
15/09:30pm 22.7 20.6 8.4 40 7.8 NE 9 9 5 5 1017.1 1014.6 0.0
15/09:00pm 22.3 21.2 9.8 45 6.9 E 6 6 3 3 1017.0 1014.5 0.0
15/08:30pm 22.6 20.7 7.6 38 8.0 E 7 7 4 4 1016.8 1014.3 0.0
15/08:00pm 22.9 21.2 7.4 37 8.3 ENE 6 6 3 3 1016.5 1014.0 0.0
15/07:30pm 24.3 22.4 6.6 32 9.4 ENE 6 6 3 3 1016.1 1013.7 0.0
15/07:00pm 25.9 24.4 7.0 30 10.2 NE 4 6 2 3 1015.8 1013.4 0.0
15/06:30pm 28.4 26.1 5.9 24 12.1 NNE 7 7 4 4 1015.6 1013.1 0.0
15/06:00pm 30.5 28.2 5.0 20 13.6 N 6 7 3 4 1015.4 1012.9 0.0
15/05:30pm 32.3 30.3 4.2 17 15.0 N 4 6 2 3 1015.3 1012.8 0.0
15/05:00pm 32.9 30.2 2.9 15 15.7 NE 6 13 3 7 1015.1 1012.6 0.0
15/04:30pm 33.3 31.1 3.2 15 15.9 NNE 4 9 2 5 1015.1 1012.6 0.0
15/04:00pm 32.4 29.6 3.4 16 15.3 N 7 11 4 6 1015.1 1012.6 0.0
15/03:30pm 33.3 30.5 3.2 15 15.9 NNW 7 15 4 8 1015.3 1012.8 0.0
15/03:00pm 33.3 30.7 3.2 15 15.9 N 6 13 3 7 1015.6 1013.1 0.0
15/02:30pm 33.0 29.2 3.9 16 15.5 WNW 13 20 7 11 1016.0 1013.6 0.0
15/02:00pm 33.1 30.4 3.9 16 15.6 W 7 15 4 8 1016.5 1014.0 0.0
15/01:30pm 32.3 29.3 4.2 17 15.0 W 9 19 5 10 1017.0 1014.5 0.0
15/01:00pm 32.3 29.7 4.2 17 15.0 W 7 13 4 7 1017.6 1015.2 0.0
15/12:30pm 32.6 29.7 2.6 15 15.6 N 7 13 4 7 1018.4 1015.9 0.0
15/12:00pm 31.3 27.9 -0.4 13 15.6 NNW 7 17 4 9 1018.9 1016.4 0.0
15/11:30am 30.4 27.1 -1.1 13 15.2 NE 6 11 3 6 1019.5 1017.1 0.0
15/11:00am 28.4 24.7 -2.6 13 14.4 NE 7 13 4 7 1020.1 1017.6 0.0
15/10:30am 26.1 22.2 -4.4 13 13.4 NNE 7 13 4 7 1020.6 1018.2 0.0
15/10:00am 25.7 21.5 -3.8 14 13.1 ENE 9 17 5 9 1020.6 1018.2 0.0
15/09:30am 24.3 19.3 -4.0 15 12.3 NE 13 17 7 9 1020.8 1018.4 0.0
15/09:00am 22.3 17.8 -3.1 18 11.1 ENE 11 17 6 9 1020.8 1018.4 0.0
15/08:30am 20.8 16.8 -2.3 21 10.1 E 9 15 5 8 1020.7 1018.3 0.0
15/08:00am 18.3 15.0 -1.0 27 8.5 SE 6 7 3 4 1020.6 1018.2 0.0
15/07:30am 16.1 12.8 -0.2 33 7.1 SSE 7 9 4 5 1020.2 1017.7 0.0
15/07:00am 14.3 11.1 0.6 39 6.0 SSE 7 11 4 6 1019.7 1017.3 0.0
15/06:30am 14.0 10.5 1.0 41 5.7 SSE 9 11 5 6 1019.3 1016.9 0.0
15/06:00am 13.1 10.3 2.1 47 4.9 SSW 6 6 3 3 1019.0 1016.6 0.0
15/05:30am 13.9 11.1 1.9 44 5.4 S 6 7 3 4 1018.6 1016.1 0.0
15/05:00am 13.6 10.9 2.5 47 5.1 S 6 7 3 4 1018.3 1015.8 0.0
15/04:30am 13.5 11.0 3.8 52 4.5 S 6 7 3 4 1017.8 1015.4 0.0
15/04:00am 14.1 11.9 3.3 48 5.0 SSE 4 6 2 3 1017.8 1015.4 0.0
15/03:30am 14.1 11.6 3.6 49 4.9 SE 6 7 3 4 1017.9 1015.5 0.0
15/03:00am 15.7 13.2 3.5 44 5.8 SE 6 7 3 4 1018.0 1015.6 0.0
15/02:30am 14.4 12.5 5.0 53 4.5 ESE 4 6 2 3 1017.9 1015.5 0.0
15/02:00am 14.3 12.0 4.9 53 4.5 E 6 7 3 4 1018.0 1015.6 0.0
15/01:30am 15.3 13.7 4.4 48 5.2 NE 2 4 1 2 1018.4 1015.9 0.0
15/01:00am 16.9 14.3 3.2 40 6.5 SE 6 6 3 3 1018.4 1015.9 0.0
15/12:30am 17.3 14.0 2.5 37 6.9 ESE 9 13 5 7 1018.4 1015.9 0.0
15/12:00am 18.8 15.4 3.8 37 7.3 E 11 15 6 8 1018.5 1016.0 0.0
 
Date/Time
CST
Temp
°C
App
Temp
°C
Dew
Point
°C
Rel
Hum
%
Delta-T
°C
Wind Press
QNH
hPa
Press
MSL
hPa
Rain since
9am
mm
Dir  Spd
km/h
Gust
km/h
Spd
kts
Gust
kts
14/11:30pm 17.3 14.4 4.6 43 6.2 E 9 9 5 5 1018.7 1016.2 0.0
14/11:00pm 17.9 14.9 4.1 40 6.7 E 9 9 5 5 1018.8 1016.3 0.0
14/10:30pm 18.7 15.3 4.1 38 7.1 ENE 11 11 6 6 1019.1 1016.7 0.0
14/10:00pm 20.2 17.1 3.4 33 8.2 NE 9 11 5 6 1019.2 1016.8 0.0
14/09:30pm 20.1 16.6 3.3 33 8.2 ENE 11 13 6 7 1019.2 1016.8 0.0
14/09:00pm 21.9 18.4 3.6 30 9.0 ENE 11 13 6 7 1019.1 1016.7 0.0
14/08:30pm 22.4 19.3 3.5 29 9.4 ENE 9 11 5 6 1018.8 1016.3 0.0
14/08:00pm 24.6 21.4 3.3 25 10.7 NE 9 13 5 7 1018.6 1016.1 0.0
14/07:30pm 25.0 21.6 4.2 26 10.6 NNE 11 15 6 8 1018.4 1015.9 0.0
14/07:00pm 25.0 21.7 4.7 27 10.5 NE 11 13 6 7 1017.8 1015.4 0.0
14/06:30pm 26.6 23.0 5.0 25 11.3 NE 13 22 7 12 1017.3 1014.8 0.0
14/06:00pm 28.3 25.1 7.0 26 11.6 NNE 13 19 7 10 1017.1 1014.6 0.0
14/05:30pm 30.2 27.0 6.8 23 12.9 NNE 13 19 7 10 1016.9 1014.4 0.0
14/05:00pm 29.6 26.9 5.6 22 12.9 N 9 13 5 7 1017.0 1014.5 0.0
14/04:30pm 29.7 26.9 5.1 21 13.1 ENE 9 15 5 8 1016.8 1014.3 0.0
14/04:00pm 29.8 25.2 3.7 19 13.6 NNE 17 24 9 13 1016.6 1014.1 0.0
14/03:30pm 30.3 26.5 4.1 19 13.8 NNE 13 22 7 12 1016.6 1014.1 0.0
14/03:00pm 30.9 26.9 3.0 17 14.5 NNE 13 24 7 13 1017.0 1014.5 0.0
14/02:30pm 29.1 25.5 0.7 16 14.0 NE 9 19 5 10 1017.5 1015.1 0.0
14/02:00pm 28.6 25.1 1.2 17 13.6 NE 9 17 5 9 1018.0 1015.6 0.0
14/01:30pm 29.2 25.2 0.8 16 14.0 NNE 11 20 6 11 1018.5 1016.0 0.0

Other formats

Comma delimited format used in spreadsheet applications
http://www.bom.gov.au/fwo/IDD60801/IDD60801.94328.axf

JavaScript Object Notation format (JSON) in row-major order
http://www.bom.gov.au/fwo/IDD60801/IDD60801.94328.json

Data quality

Most of these data are generated automatically and are frequently updated. Quality checks on data are not normally performed. It is possible for incorrect values to appear. Refer to information at About Latest Weather Observations and please check the disclaimer before using these data.